Terminal Aerodrome Forecast
Issued by NWS

Home | Current Version | Previous Version | Text Only | Print | Product List | Glossary On
Versions: 1 2 3 4 5 6 7 8 9 10 11 12 13 14 15 16 17 18 19 20 21 22 23 24 25 26 27 28 29 30 31 32 33 34 35 36 37 38 39
000
FTUS43 KGRB 132300
TAFRHI
TAF
KRHI 132339Z 1400/1424 26006KT P6SM SCT050 BKN080
      TEMPO 1410/1412 SCT020 BKN050
     FM141200 29009KT P6SM VCSH SCT025 OVC040
      TEMPO 1416/1420 5SM -SHRA OVC025=

USA.gov is the U.S. government's official web portal to all federal, state and local government web resources and services.